Time;durP1;ratioP1;P1;durP2;ratioP2;P2;SDS_P1;SDS_P2;PMS_P1;PMS_P2;Temp;Humidity;BMP_temperature;BMP_pressure;BME280_temperature;BME280_humidity;BME280_pressure;Samples;Min_cycle;Max_cycle;Signal;HPM_P1;HPM_P2
2022/07/29 00:01:16;;;;;;;6.43;4.60;;;;;;;21.40;73.13;99391.81;5019980;28;20036;-92
2022/07/29 00:03:42;;;;;;;6.55;5.60;;;;;;;21.23;74.42;99375.59;5020508;28;20029;-94
2022/07/29 00:06:07;;;;;;;7.63;5.03;;;;;;;21.11;74.10;99373.63;5003642;28;20116;-93
2022/07/29 00:08:33;;;;;;;8.20;5.32;;;;;;;21.10;74.11;99382.16;5019570;28;20060;-94
2022/07/29 00:10:59;;;;;;;5.28;4.68;;;;;;;21.12;74.09;99408.06;5003438;28;20037;-94
2022/07/29 00:13:24;;;;;;;7.32;5.00;;;;;;;20.95;73.55;99378.16;5020064;28;20061;-93
2022/07/29 00:15:50;;;;;;;5.60;4.88;;;;;;;21.09;73.61;99403.28;5020081;28;20021;-94
2022/07/29 00:18:16;;;;;;;6.20;4.57;;;;;;;20.86;73.33;99374.72;5002304;28;20029;-94
2022/07/29 00:20:41;;;;;;;5.65;4.82;;;;;;;20.95;73.90;99391.84;5004294;28;20053;-94
2022/07/29 00:23:07;;;;;;;6.57;4.75;;;;;;;20.90;73.39;99394.78;5018867;28;20048;-93
2022/07/29 00:25:32;;;;;;;5.57;4.75;;;;;;;20.92;73.57;99398.00;5018935;28;20025;-94
2022/07/29 00:27:58;;;;;;;7.28;5.00;;;;;;;20.88;73.84;99399.81;5020572;28;20029;-93
2022/07/29 00:30:23;;;;;;;5.57;5.00;;;;;;;20.86;74.16;99388.38;5003042;28;20021;-92
2022/07/29 00:32:49;;;;;;;5.65;4.78;;;;;;;20.98;74.41;99413.06;5003522;28;20067;-93
2022/07/29 00:37:59;;;;;;;7.15;5.55;;;;;;;20.81;74.49;99408.53;5022064;28;20112;-92
2022/07/29 00:40:24;;;;;;;5.80;4.35;;;;;;;20.70;74.25;99393.69;5019068;28;20021;-93
2022/07/29 00:42:50;;;;;;;9.43;5.28;;;;;;;20.72;74.45;99407.81;5018870;28;20030;-93
2022/07/29 00:45:16;;;;;;;7.70;5.25;;;;;;;20.46;75.46;99392.41;5002140;28;20073;-92
2022/07/29 00:47:42;;;;;;;5.72;4.90;;;;;;;20.50;74.83;99384.31;5001044;28;20480;-93
2022/07/29 00:50:09;;;;;;;6.70;5.35;;;;;;;20.42;75.42;99386.00;5018647;28;20423;-92
2022/07/29 00:52:38;;;;;;;6.22;5.30;;;;;;;20.35;75.83;99391.97;4985691;28;20049;-93
2022/07/29 00:55:05;;;;;;;6.35;4.95;;;;;;;20.23;76.31;99371.97;5018770;28;20443;-93
2022/07/29 00:57:31;;;;;;;5.40;4.70;;;;;;;20.30;76.00;99375.78;5017830;28;20087;-95
2022/07/29 00:59:56;;;;;;;8.80;4.95;;;;;;;20.31;75.41;99374.63;5019439;28;20392;-93
2022/07/29 01:02:22;;;;;;;6.50;5.25;;;;;;;20.32;75.24;99373.53;5018416;28;20085;-95
2022/07/29 01:04:48;;;;;;;6.90;5.20;;;;;;;20.41;75.42;99381.66;5017866;28;20192;-95
2022/07/29 01:07:13;;;;;;;7.30;5.15;;;;;;;20.27;75.46;99357.31;5018127;28;20040;-94
2022/07/29 01:09:39;;;;;;;8.50;5.60;;;;;;;20.36;75.83;99371.72;5019977;28;20028;-93
2022/07/29 01:12:05;;;;;;;6.68;5.25;;;;;;;20.33;76.26;99369.63;5019157;28;20021;-94
2022/07/29 01:14:31;;;;;;;7.38;5.13;;;;;;;20.46;76.23;99381.47;5001945;28;20041;-94
2022/07/29 01:17:18;;;;;;;7.38;5.80;;;;;;;20.28;76.51;99349.91;5018776;28;20092;-93
2022/07/29 01:20:02;;;;;;;9.10;5.60;;;;;;;20.33;76.23;99355.97;5019554;28;20049;-93
2022/07/29 01:22:35;;;;;;;11.25;5.45;;;;;;;20.42;76.17;99363.31;5003353;28;20026;-94
2022/07/29 01:25:38;;;;;;;7.18;5.43;;;;;;;20.42;75.74;99363.31;5002840;28;20017;-93
2022/07/29 01:28:03;;;;;;;8.32;5.65;;;;;;;20.37;75.76;99372.50;5034992;28;20021;-93
2022/07/29 01:30:29;;;;;;;8.93;5.28;;;;;;;20.17;76.27;99344.84;5034817;28;20447;-94
2022/07/29 01:32:57;;;;;;;6.07;5.05;;;;;;;20.31;75.33;99363.69;5018016;28;20022;-94
2022/07/29 01:35:25;;;;;;;7.55;5.30;;;;;;;20.45;74.59;99355.22;5017924;28;20025;-93
2022/07/29 01:37:52;;;;;;;6.55;5.00;;;;;;;20.79;74.06;99377.97;5018352;28;20036;-92
2022/07/29 01:40:23;;;;;;;7.85;4.70;;;;;;;20.66;72.71;99340.75;5017724;28;20486;-94
2022/07/29 01:42:50;;;;;;;;;;;;;;;20.97;72.12;99373.13;5018327;28;20021;-93
2022/07/29 01:45:18;;;;;;;4.60;3.88;;;;;;;20.89;70.70;99352.13;5017589;28;19916;-94
2022/07/29 01:47:57;;;;;;;4.63;3.67;;;;;;;20.98;69.35;99374.75;5017733;28;20060;-94
2022/07/29 01:50:37;;;;;;;3.75;3.33;;;;;;;20.89;68.85;99354.84;5017846;28;20021;-93
2022/07/29 01:53:08;;;;;;;5.38;4.03;;;;;;;20.85;70.70;99370.34;5020003;28;20029;-94
2022/07/29 01:55:36;;;;;;;6.63;3.85;;;;;;;20.81;69.81;99364.75;5001922;28;20037;-94
2022/07/29 01:58:03;;;;;;;6.05;3.80;;;;;;;20.84;69.37;99375.03;5018107;28;20041;-94
2022/07/29 02:00:29;;;;;;;6.03;3.70;;;;;;;20.60;71.43;99356.56;5018095;28;20029;-94
2022/07/29 02:02:55;;;;;;;5.93;4.40;;;;;;;20.54;71.95;99366.09;5002015;28;20034;-94
2022/07/29 02:05:22;;;;;;;6.78;4.45;;;;;;;20.39;73.12;99362.84;5017137;28;20037;-94
2022/07/29 02:07:50;;;;;;;7.47;4.40;;;;;;;20.29;72.47;99352.28;5001380;28;20044;-94
2022/07/29 02:10:16;;;;;;;4.90;4.00;;;;;;;20.22;72.71;99360.25;5001559;28;20495;-94
2022/07/29 02:12:42;;;;;;;6.20;4.38;;;;;;;20.13;73.60;99365.78;5001153;28;20064;-94
2022/07/29 02:15:08;;;;;;;4.85;4.32;;;;;;;20.01;74.03;99356.72;4982492;28;20531;-94
2022/07/29 02:17:38;;;;;;;7.50;4.35;;;;;;;19.96;74.39;99357.69;4983670;28;20030;-93
2022/07/29 02:20:06;;;;;;;7.78;4.47;;;;;;;20.06;73.61;99370.16;4985549;28;20029;-93
2022/07/29 02:22:33;;;;;;;7.47;4.78;;;;;;;20.06;73.83;99370.16;5000907;28;20029;-93
2022/07/29 02:24:58;;;;;;;6.97;5.50;;;;;;;19.76;74.06;99362.00;5017191;28;20116;-93
2022/07/29 02:27:24;;;;;;;7.78;5.38;;;;;;;19.75;75.02;99371.31;4983598;28;20120;-94
2022/07/29 02:29:50;;;;;;;8.07;5.25;;;;;;;19.70;75.52;99361.38;4985090;28;20029;-93
2022/07/29 02:32:15;;;;;;;7.25;5.95;;;;;;;19.76;75.24;99372.94;5001350;28;20072;-93
2022/07/29 02:34:41;;;;;;;7.25;5.47;;;;;;;19.81;75.33;99383.66;5017527;28;20399;-95
2022/07/29 02:37:09;;;;;;;6.85;4.97;;;;;;;19.70;75.38;99368.75;5000718;28;20498;-94
2022/07/29 02:39:35;;;;;;;8.18;5.47;;;;;;;19.70;75.03;99364.09;5017596;28;20040;-93
2022/07/29 02:42:12;;;;;;;7.55;4.97;;;;;;;19.61;74.75;99355.16;5018126;28;20025;-93
2022/07/29 02:44:38;;;;;;;6.18;5.57;;;;;;;19.70;74.73;99364.09;5001542;28;20056;-92
2022/07/29 02:47:13;;;;;;;5.85;5.20;;;;;;;19.67;75.54;99383.06;5016672;28;20029;-95
2022/07/29 02:49:52;;;;;;;6.32;5.32;;;;;;;19.54;74.88;99374.75;5034155;28;20034;-93
2022/07/29 02:52:43;;;;;;;8.93;5.10;;;;;;;19.50;74.91;99362.09;5018116;28;20032;-93
2022/07/29 02:55:18;;;;;;;6.95;5.10;;;;;;;19.58;75.07;99370.22;5019228;28;20033;-95
2022/07/29 02:57:57;;;;;;;4.63;3.63;;;;;;;19.76;72.21;99386.59;5017807;28;20105;-93
2022/07/29 03:00:27;;;;;;;5.55;3.75;;;;;;;19.82;72.83;99388.00;5002809;28;20483;-94
2022/07/29 03:02:53;;;;;;;5.55;3.58;;;;;;;19.76;73.53;99373.72;5014978;28;20036;-94
2022/07/29 03:05:20;;;;;;;4.85;3.80;;;;;;;19.73;73.48;99377.09;4997390;28;20030;-95
2022/07/29 03:07:47;;;;;;;7.60;4.50;;;;;;;19.71;73.83;99364.91;5017402;28;20030;-93
2022/07/29 03:10:13;;;;;;;6.43;3.88;;;;;;;19.65;74.20;99371.66;5014239;28;20396;-93
2022/07/29 03:12:38;;;;;;;4.93;3.90;;;;;;;19.62;74.64;99375.84;5021354;28;20029;-93
2022/07/29 03:15:04;;;;;;;6.20;4.43;;;;;;;19.48;75.25;99367.06;5016696;28;20050;-93
2022/07/29 03:17:30;;;;;;;5.40;4.57;;;;;;;19.57;74.99;99381.50;5003845;28;20113;-93
2022/07/29 03:19:55;;;;;;;7.45;4.38;;;;;;;19.67;74.74;99393.97;5022116;28;20029;-93
2022/07/29 03:22:21;;;;;;;6.05;4.13;;;;;;;19.68;74.22;99390.13;5021057;28;20094;-93
2022/07/29 03:24:46;;;;;;;5.38;4.25;;;;;;;19.26;75.35;99388.03;5000302;28;20470;-93
2022/07/29 03:27:12;;;;;;;6.18;4.22;;;;;;;19.10;75.79;99398.69;5000639;28;20087;-94
2022/07/29 03:29:37;;;;;;;5.85;4.35;;;;;;;19.11;75.89;99403.03;5004471;28;20056;-93
2022/07/29 03:32:04;;;;;;;6.53;4.60;;;;;;;19.23;75.18;99398.81;5020581;28;20021;-94
2022/07/29 03:34:30;;;;;;;5.75;4.30;;;;;;;19.45;75.15;99411.44;5019312;28;20029;-92
2022/07/29 03:36:55;;;;;;;5.45;4.35;;;;;;;19.54;73.83;99398.53;5020383;28;20036;-95
2022/07/29 03:39:22;;;;;;;6.60;3.78;;;;;;;19.69;72.82;99399.91;5020335;28;20403;-94
2022/07/29 03:41:49;;;;;;;7.18;3.80;;;;;;;19.79;72.73;99411.28;5019373;28;20124;-94
2022/07/29 03:44:17;;;;;;;8.05;4.10;;;;;;;19.47;73.42;99415.44;5020302;28;20021;-95
2022/07/29 03:51:06;;;;;;;8.10;4.80;;;;;;;19.46;73.93;99432.94;5029267;28;20388;-92
2022/07/29 03:57:36;;;;;;;6.32;4.32;;;;;;;19.14;75.22;99442.50;4917198;29;20582;-94
2022/07/29 04:04:36;;;;;;;7.28;4.28;;;;;;;18.87;75.56;99422.63;4827302;29;20057;-95
2022/07/29 04:10:52;;;;;;;7.00;4.68;;;;;;;19.14;74.70;99434.31;4686857;30;20095;-93
2022/07/29 04:17:05;;;;;;;9.70;4.65;;;;;;;19.01;75.40;99444.28;4714182;30;20045;-93
2022/07/29 04:19:31;;;;;;;6.00;4.40;;;;;;;19.02;75.57;99432.25;4805856;29;20502;-94
2022/07/29 04:21:57;;;;;;;6.50;4.30;;;;;;;19.10;75.35;99431.44;4967658;28;20117;-93
2022/07/29 04:24:43;;;;;;;10.18;5.45;;;;;;;19.06;75.88;99425.00;4964509;28;20054;-94
2022/07/29 04:28:10;;;;;;;8.25;5.65;;;;;;;19.25;75.38;99464.81;4987234;28;20116;-94
2022/07/29 04:31:53;;;;;;;;;;;;;;;;;;;;;
2022/07/29 04:35:07;;;;;;;10.65;6.80;;;;;;;19.25;75.80;99423.84;4899312;29;20092;-94
2022/07/29 04:37:34;;;;;;;9.73;7.75;;;;;;;19.45;75.74;99455.94;4864384;29;20461;-94
2022/07/29 04:40:00;;;;;;;11.57;7.93;;;;;;;19.42;75.99;99445.63;4881790;29;20032;-95
2022/07/29 04:42:28;;;;;;;10.40;7.80;;;;;;;19.63;74.66;99442.19;4919897;29;20035;-95
2022/07/29 04:44:59;;;;;;;12.25;8.55;;;;;;;19.85;74.27;99457.59;4950445;28;20095;-95
2022/07/29 04:47:25;;;;;;;11.30;7.97;;;;;;;19.78;74.24;99458.91;4969533;28;20040;-96
2022/07/29 04:56:48;;;;;;;15.87;12.27;;;;;;;19.81;73.48;99441.03;4961414;28;20109;-95
2022/07/29 05:01:01;;;;;;;14.63;11.55;;;;;;;20.10;72.32;99444.91;4954229;29;20078;-96
2022/07/29 05:03:23;;;;;;;19.60;14.85;;;;;;;20.37;72.16;99458.09;4956377;28;20099;-95
2022/07/29 05:06:16;;;;;;;19.45;15.00;;;;;;;20.50;71.17;99464.47;4959628;28;20046;-93
2022/07/29 05:09:10;;;;;;;;;;;;;;;;;;;;;
2022/07/29 05:11:58;;;;;;;22.38;13.90;;;;;;;21.10;67.93;99475.25;4940712;29;20066;-95
2022/07/29 05:22:14;;;;;;;21.33;15.05;;;;;;;21.17;67.21;99457.16;4941314;29;20062;-95
2022/07/29 05:32:20;;;;;;;11.55;8.38;;;;;;;21.57;65.33;99458.53;4998150;28;20047;-96
2022/07/29 05:35:19;;;;;;;;;;;;;;;;;;;;;
2022/07/29 05:37:55;;;;;;;17.13;12.38;;;;;;;21.73;64.97;99456.75;4965801;28;20140;-95
2022/07/29 05:47:00;;;;;;;14.38;8.10;;;;;;;22.01;64.78;99464.28;5001943;28;20046;-93
2022/07/29 05:49:25;;;;;;;11.73;7.82;;;;;;;22.09;64.38;99470.81;4950308;28;20033;-94
2022/07/29 05:51:52;;;;;;;11.27;7.13;;;;;;;22.13;64.35;99449.78;4963009;28;20044;-93
2022/07/29 05:55:04;;;;;;;12.90;7.47;;;;;;;22.38;62.86;99478.81;4965406;28;20049;-94
2022/07/29 05:57:32;;;;;;;8.50;6.00;;;;;;;22.40;60.14;99460.06;4954584;28;20042;-93
2022/07/29 06:00:02;;;;;;;10.95;6.05;;;;;;;22.49;61.80;99445.41;4965702;28;20033;-93
2022/07/29 06:02:40;;;;;;;5.00;3.72;;;;;;;22.61;56.99;99459.09;4966676;28;20069;-96
2022/07/29 06:08:42;;;;;;;5.32;3.40;;;;;;;22.80;57.09;99462.00;4962178;28;20112;-93
2022/07/29 06:25:09;;;;;;;4.25;3.10;;;;;;;23.30;57.05;99475.56;4901598;29;20264;-95
2022/07/29 06:28:04;;;;;;;;;;;;;;;;;;;;;
2022/07/29 06:30:30;;;;;;;7.60;3.00;;;;;;;23.37;56.41;99456.53;4905024;28;20114;-96
2022/07/29 06:33:01;;;;;;;4.55;3.35;;;;;;;23.55;56.22;99470.72;4961608;28;20061;-93
2022/07/29 06:35:38;;;;;;;;;;;;;;;23.79;55.87;99480.81;4954868;28;20046;-96
2022/07/29 06:38:07;;;;;;;8.85;3.70;;;;;;;23.84;55.83;99477.78;4964594;28;19941;-93
2022/07/29 06:41:03;;;;;;;6.22;2.92;;;;;;;23.89;54.11;99473.97;4966036;28;20041;-93
2022/07/29 06:43:37;;;;;;;4.97;2.60;;;;;;;23.91;53.62;99474.44;4935783;29;20035;-91
2022/07/29 06:46:04;;;;;;;3.78;2.85;;;;;;;24.03;53.67;99457.00;4921504;29;20043;-94
2022/07/29 06:48:54;;;;;;;4.90;3.50;;;;;;;24.13;53.40;99450.97;4923699;29;20482;-92
2022/07/29 06:51:37;;;;;;;4.07;3.35;;;;;;;24.34;52.57;99470.72;4922683;29;20548;-93
2022/07/29 06:54:05;;;;;;;11.00;7.38;;;;;;;24.35;52.39;99442.03;4923662;29;20036;-92
2022/07/29 06:56:31;;;;;;;4.70;3.10;;;;;;;24.51;52.13;99447.53;4908841;29;20028;-93
2022/07/29 06:58:57;;;;;;;9.55;5.30;;;;;;;24.74;52.41;99460.59;4940186;29;20043;-93
2022/07/29 07:01:53;;;;;;;4.50;3.05;;;;;;;24.81;51.48;99436.75;4922573;29;20039;-94
2022/07/29 07:05:17;;;;;;;2.78;2.28;;;;;;;24.88;49.13;99436.09;4869096;29;20045;-95
2022/07/29 07:07:47;;;;;;;5.57;3.40;;;;;;;25.11;48.80;99447.19;4884740;29;20059;-94
2022/07/29 07:10:15;;;;;;;17.92;13.57;;;;;;;25.19;47.82;99439.81;4904483;29;20127;-93
2022/07/29 07:12:41;;;;;;;3.40;2.40;;;;;;;25.42;47.67;99439.88;4954411;29;20470;-92
2022/07/29 07:15:21;;;;;;;5.65;3.08;;;;;;;25.55;48.80;99433.03;4954310;28;20094;-96
2022/07/29 07:17:48;;;;;;;5.93;3.03;;;;;;;25.71;48.03;99449.47;4962740;28;20042;-95
2022/07/29 07:20:36;;;;;;;4.72;3.22;;;;;;;25.78;47.26;99434.97;4948087;28;20022;-94
2022/07/29 07:23:04;;;;;;;7.00;4.28;;;;;;;25.84;46.96;99424.41;4966910;28;20038;-94
2022/07/29 07:25:33;;;;;;;9.63;5.75;;;;;;;26.11;46.42;99431.56;4961780;28;20029;-93
2022/07/29 07:28:11;;;;;;;7.93;4.93;;;;;;;26.29;47.13;99440.09;4980329;28;20037;-96
2022/07/29 07:30:40;;;;;;;5.82;3.78;;;;;;;26.40;45.05;99434.75;4963737;28;20057;-93
2022/07/29 07:34:02;;;;;;;5.28;2.80;;;;;;;26.53;43.24;99436.09;4980233;28;20037;-92
2022/07/29 07:36:36;;;;;;;6.22;3.45;;;;;;;26.75;44.57;99434.44;4969647;28;20073;-95
2022/07/29 07:39:26;;;;;;;3.67;2.40;;;;;;;27.01;43.32;99455.66;4940892;29;20419;-95
2022/07/29 07:42:08;;;;;;;2.88;2.00;;;;;;;27.13;42.63;99440.78;4928543;29;20548;-95
2022/07/29 07:44:37;;;;;;;3.30;2.08;;;;;;;27.25;39.75;99428.69;4895250;29;20036;-94
2022/07/29 07:47:19;;;;;;;4.88;3.60;;;;;;;27.39;39.29;99423.31;4908675;29;20039;-91
2022/07/29 07:49:47;;;;;;;4.80;3.28;;;;;;;27.65;40.92;99438.16;4902618;29;20039;-92
2022/07/29 07:52:15;;;;;;;3.50;2.70;;;;;;;27.83;39.45;99435.53;4908480;29;20735;-89
2022/07/29 07:54:40;;;;;;;3.25;2.45;;;;;;;27.98;39.55;99436.47;4924551;29;20494;-92
2022/07/29 07:57:06;;;;;;;2.83;2.28;;;;;;;28.09;39.65;99419.91;4921207;29;20032;-94
2022/07/29 07:59:54;;;;;;;6.88;2.65;;;;;;;28.20;39.83;99427.13;4892690;29;20110;-95
2022/07/29 08:02:19;;;;;;;4.13;2.47;;;;;;;28.18;40.09;99412.03;4907248;29;20048;-96
2022/07/29 08:04:48;;;;;;;3.40;2.53;;;;;;;28.43;39.10;99437.13;4904841;29;20040;-93
2022/07/29 08:07:24;;;;;;;;;;;;;;;;;;;;;
2022/07/29 08:10:58;;;;;;;3.83;2.30;;;;;;;28.56;36.79;99429.31;4952109;28;20042;-96
2022/07/29 08:13:28;;;;;;;5.40;3.05;;;;;;;28.65;37.69;99415.88;4952575;28;20035;-93
2022/07/29 08:16:35;;;;;;;3.88;2.00;;;;;;;28.63;36.11;99412.72;4927742;29;20049;-94
2022/07/29 08:19:27;;;;;;;50.92;33.75;;;;;;;28.84;37.42;99423.06;4905710;29;20124;-95
2022/07/29 08:22:41;;;;;;;4.78;3.25;;;;;;;28.81;35.89;99396.16;4914001;29;20052;-94
2022/07/29 08:25:08;;;;;;;4.25;3.15;;;;;;;28.91;36.54;99397.34;4889080;29;20033;-94
2022/07/29 08:27:56;;;;;;;2.80;2.53;;;;;;;29.02;35.99;99392.63;4922020;29;20040;-93
2022/07/29 08:30:26;;;;;;;2.80;2.08;;;;;;;28.92;35.23;99407.25;4917029;29;20044;-94
2022/07/29 08:32:52;;;;;;;2.75;2.30;;;;;;;29.13;34.95;99406.53;4922720;29;20522;-95
2022/07/29 08:35:24;;;;;;;4.60;2.70;;;;;;;29.33;34.64;99415.31;4921684;29;20028;-95
2022/07/29 08:37:58;;;;;;;3.42;2.53;;;;;;;29.42;35.05;99399.06;4925534;29;20050;-95
2022/07/29 08:41:11;;;;;;;4.80;2.13;;;;;;;29.51;34.67;99399.47;4905836;29;20032;-94
2022/07/29 08:43:40;;;;;;;1.92;1.67;;;;;;;29.53;33.38;99388.75;4859338;29;20173;-95
2022/07/29 08:46:18;;;;;;;4.18;3.00;;;;;;;29.68;34.34;99405.41;4868431;29;20041;-94
2022/07/29 08:48:52;;;;;;;2.28;1.83;;;;;;;29.70;33.04;99378.88;4890832;29;20044;-94
2022/07/29 08:51:39;;;;;;;3.20;2.20;;;;;;;29.76;33.93;99382.00;4879811;29;20089;-95
2022/07/29 08:54:57;;;;;;;2.22;2.00;;;;;;;30.06;33.99;99411.34;4880872;29;20037;-95
2022/07/29 08:58:11;;;;;;;2.17;1.98;;;;;;;29.67;32.26;99376.84;4881922;29;20464;-93
2022/07/29 09:01:31;;;;;;;5.10;2.60;;;;;;;29.97;33.43;99398.66;4866322;29;20041;-94
2022/07/29 09:03:57;;;;;;;3.20;1.85;;;;;;;30.05;33.29;99382.78;4899791;29;20036;-93
2022/07/29 09:06:51;;;;;;;4.38;2.28;;;;;;;30.17;33.47;99382.34;4862464;29;20033;-94
2022/07/29 09:09:19;;;;;;;6.10;2.85;;;;;;;30.37;32.65;99379.13;4884632;29;20045;-94
2022/07/29 09:11:53;;;;;;;2.13;1.70;;;;;;;30.45;32.20;99382.69;4910344;29;20040;-94
2022/07/29 09:14:31;;;;;;;2.03;1.50;;;;;;;30.49;30.89;99369.56;4949847;28;20065;-95
2022/07/29 09:17:04;;;;;;;3.90;2.00;;;;;;;30.55;31.57;99377.09;4985633;28;20030;-95
2022/07/29 09:19:45;;;;;;;3.08;1.80;;;;;;;30.66;31.18;99370.69;4988878;28;20018;-96
2022/07/29 09:22:11;;;;;;;2.80;1.70;;;;;;;30.81;31.38;99372.19;5002854;28;20030;-94
2022/07/29 09:25:05;;;;;;;3.13;1.90;;;;;;;30.99;31.36;99389.56;4968540;28;20122;-93
2022/07/29 09:27:41;;;;;;;;;;;;;;;;;;;;;
2022/07/29 09:30:12;;;;;;;2.17;1.65;;;;;;;30.82;30.45;99371.78;4986025;28;20122;-92
2022/07/29 09:32:54;;;;;;;7.68;1.90;;;;;;;30.89;29.47;99370.97;4962230;28;20074;-94
2022/07/29 09:36:28;;;;;;;;;;;;;;;;;;;;;
2022/07/29 09:39:00;;;;;;;2.75;1.85;;;;;;;31.11;30.17;99377.19;4950031;29;20130;-89
2022/07/29 09:41:28;;;;;;;7.90;4.65;;;;;;;31.18;30.16;99362.44;4932505;28;20035;-90
2022/07/29 09:43:56;;;;;;;3.28;2.10;;;;;;;31.29;28.79;99367.91;4946895;28;20057;-92
2022/07/29 09:46:41;;;;;;;;;;;;;;;;;;;;;
2022/07/29 09:49:20;;;;;;;4.10;2.00;;;;;;;31.40;29.19;99343.59;4970469;28;20130;-95
2022/07/29 09:59:03;;;;;;;2.38;1.90;;;;;;;31.63;27.54;99356.94;5203853;23;20118;-93
2022/07/29 10:01:34;;;;;;;2.65;1.70;;;;;;;31.59;26.90;99336.69;5059482;23;20082;-91
2022/07/29 10:04:00;;;;;;;3.83;2.13;;;;;;;31.66;27.11;99344.16;4984154;28;20034;-94
2022/07/29 10:06:30;;;;;;;4.82;2.58;;;;;;;31.61;27.76;99342.63;4971416;28;20556;-94
2022/07/29 10:09:15;;;;;;;5.38;2.60;;;;;;;31.71;27.61;99338.16;4966786;28;20019;-95
2022/07/29 10:12:34;;;;;;;4.15;2.47;;;;;;;31.93;27.21;99361.78;4992112;28;20038;-94
2022/07/29 10:15:36;;;;;;;4.63;2.28;;;;;;;31.98;27.32;99366.91;5055564;23;20106;-95
2022/07/29 10:18:02;;;;;;;2.33;1.80;;;;;;;31.87;28.31;99343.16;4946511;28;20046;-90
2022/07/29 10:20:50;;;;;;;;;;;;;;;;;;;;;
2022/07/29 10:29:54;;;;;;;2.90;1.70;;;;;;;31.59;28.38;99325.56;4921789;29;19975;-95
2022/07/29 10:33:08;;;;;;;4.72;2.30;;;;;;;31.80;29.20;99335.69;4907321;29;20051;-93
2022/07/29 10:35:46;;;;;;;5.10;2.90;;;;;;;31.82;29.08;99322.91;4947266;29;20489;-95
2022/07/29 10:45:49;;;;;;;3.58;2.50;;;;;;;32.12;28.63;99306.69;4890196;29;20057;-91
2022/07/29 10:48:18;;;;;;;3.22;1.65;;;;;;;32.07;28.38;99282.88;4870612;29;20025;-93
2022/07/29 10:50:58;;;;;;;2.97;2.00;;;;;;;32.16;28.59;99282.38;4965519;29;20027;-94
2022/07/29 10:53:28;;;;;;;2.50;1.83;;;;;;;32.35;28.15;99284.53;4954192;29;20046;-94
2022/07/29 10:56:49;;;;;;;4.32;2.38;;;;;;;32.59;27.82;99296.53;4959460;28;20028;-96
2022/07/29 11:00:03;;;;;;;;;;;;;;;;;;;;;
2022/07/29 11:02:51;;;;;;;4.80;1.83;;;;;;;32.84;27.54;99314.91;4919090;29;20068;-93
2022/07/29 11:05:32;;;;;;;4.90;2.10;;;;;;;32.86;27.53;99295.75;5011962;28;20065;-95
2022/07/29 11:08:23;;;;;;;2.33;1.80;;;;;;;32.74;27.20;99290.75;4997213;28;20022;-95
2022/07/29 11:20:30;;;;;;;2.40;1.73;;;;;;;32.79;27.19;99293.09;5029381;28;20140;-96
2022/07/29 11:23:00;;;;;;;3.35;2.30;;;;;;;32.85;27.39;99291.38;5014903;28;20037;-95
2022/07/29 11:25:26;;;;;;;4.22;1.75;;;;;;;32.68;26.92;99270.13;4992549;28;20018;-94
2022/07/29 11:27:52;;;;;;;2.35;1.73;;;;;;;32.71;26.97;99270.09;4972599;28;20506;-96
2022/07/29 11:30:18;;;;;;;2.38;1.73;;;;;;;32.69;27.65;99253.00;4989646;28;20034;-96
2022/07/29 11:32:49;;;;;;;7.70;2.30;;;;;;;32.78;27.84;99258.81;4973885;28;20087;-95
2022/07/29 11:35:18;;;;;;;2.17;1.70;;;;;;;32.78;27.59;99281.13;4972851;28;20026;-95
2022/07/29 11:37:46;;;;;;;2.90;1.80;;;;;;;32.75;27.92;99259.66;4987645;28;20062;-96
2022/07/29 11:40:17;;;;;;;8.30;4.60;;;;;;;32.79;28.07;99265.97;4988187;28;20030;-95
2022/07/29 11:42:43;;;;;;;6.57;5.82;;;;;;;32.82;28.43;99267.13;4971816;28;20030;-95
2022/07/29 11:45:23;;;;;;;3.03;1.92;;;;;;;32.84;28.64;99258.34;4988126;28;20061;-95
2022/07/29 11:47:51;;;;;;;3.67;2.20;;;;;;;32.94;28.01;99272.13;4989888;28;20057;-95
2022/07/29 11:50:28;;;;;;;5.35;2.30;;;;;;;32.91;28.21;99247.06;4986889;28;20415;-95
2022/07/29 11:52:54;;;;;;;3.92;2.22;;;;;;;32.94;28.49;99237.88;4992791;28;20476;-94
2022/07/29 11:55:22;;;;;;;4.25;2.25;;;;;;;33.05;28.16;99252.41;4970840;28;20030;-96
2022/07/29 11:57:58;;;;;;;3.50;2.42;;;;;;;33.06;28.67;99245.63;4967434;28;20042;-95
2022/07/29 12:00:40;;;;;;;3.85;2.13;;;;;;;33.09;28.56;99233.63;4956179;28;20049;-96
2022/07/29 12:03:07;;;;;;;3.53;2.50;;;;;;;33.20;28.46;99237.03;4951111;28;20058;-94
2022/07/29 12:05:40;;;;;;;3.20;1.98;;;;;;;33.36;28.11;99253.09;4969720;28;20018;-96
2022/07/29 12:11:22;;;;;;;3.65;2.15;;;;;;;33.20;27.01;99233.44;4949234;28;20051;-96
2022/07/29 12:13:50;;;;;;;2.95;1.90;;;;;;;33.14;27.32;99221.19;4967763;23;20046;-94
2022/07/29 12:16:16;;;;;;;3.47;2.10;;;;;;;33.20;27.47;99223.09;4976065;28;20126;-95
2022/07/29 12:18:58;;;;;;;3.60;2.00;;;;;;;33.26;27.46;99214.22;4985845;28;20041;-93
2022/07/29 12:21:25;;;;;;;3.15;1.80;;;;;;;33.49;27.36;99238.50;4951357;28;20060;-94
2022/07/29 12:23:54;;;;;;;2.70;2.30;;;;;;;33.42;26.88;99208.72;4972249;28;20076;-95
2022/07/29 12:27:09;;;;;;;3.35;2.20;;;;;;;33.51;26.82;99208.94;4977894;28;20110;-96
2022/07/29 12:29:37;;;;;;;2.75;1.90;;;;;;;33.69;26.69;99214.19;4936124;29;20439;-96
2022/07/29 12:32:09;;;;;;;2.53;2.03;;;;;;;33.68;26.46;99209.84;4969964;28;20079;-96
2022/07/29 12:34:52;;;;;;;2.95;1.85;;;;;;;33.70;26.03;99217.78;5058293;23;20022;-96
2022/07/29 12:37:24;;;;;;;2.65;1.73;;;;;;;33.76;26.19;99202.09;4938180;29;20044;-96
2022/07/29 12:40:00;;;;;;;3.42;2.55;;;;;;;33.65;27.00;99196.72;4917498;29;20060;-95
2022/07/29 12:45:38;;;;;;;3.75;1.60;;;;;;;33.80;26.61;99188.84;5351131;23;20577;-96
2022/07/29 12:48:14;;;;;;;2.70;1.70;;;;;;;33.79;26.47;99184.47;4938301;29;20020;-96
2022/07/29 12:51:03;;;;;;;3.72;1.90;;;;;;;34.08;26.31;99209.03;4915869;29;20183;-96
2022/07/29 12:53:29;;;;;;;3.60;2.10;;;;;;;34.01;25.97;99187.59;4875777;29;20071;-94
2022/07/29 12:55:55;;;;;;;1.90;1.70;;;;;;;34.05;26.15;99196.69;4871661;29;20065;-95
2022/07/29 12:58:35;;;;;;;3.08;1.90;;;;;;;34.14;25.93;99188.53;4877751;29;20039;-93
2022/07/29 13:01:09;;;;;;;3.67;2.13;;;;;;;34.19;25.69;99187.22;4903308;29;20029;-95
2022/07/29 13:03:51;;;;;;;2.25;1.80;;;;;;;34.27;25.71;99180.25;4906024;29;20081;-94
2022/07/29 13:06:44;;;;;;;2.63;1.88;;;;;;;34.55;25.74;99192.78;4906854;29;20044;-96
2022/07/29 13:57:25;;;;;;;3.85;2.00;;;;;;;36.29;22.38;99134.38;4884770;29;20057;-96
2022/07/29 13:59:54;;;;;;;2.40;1.90;;;;;;;36.29;22.52;99136.41;4850849;29;20033;-94
2022/07/29 14:09:26;;;;;;;2.40;1.80;;;;;;;36.72;21.42;99140.63;4872229;29;20048;-95
2022/07/29 14:12:48;;;;;;;;;;;;;;;;;;;;;
2022/07/29 14:19:15;;;;;;;4.80;1.98;;;;;;;36.10;22.37;99118.56;4865215;29;20057;-95
2022/07/29 14:21:49;;;;;;;2.85;2.00;;;;;;;36.73;22.13;99137.38;4797541;29;20094;-95
2022/07/29 14:24:52;;;;;;;;;;;;;;;;;;;;;
2022/07/29 14:35:26;;;;;;;3.25;2.05;;;;;;;35.33;22.92;99116.41;4756303;30;20132;-96
2022/07/29 14:37:52;;;;;;;1.98;1.67;;;;;;;35.35;23.07;99111.16;4740173;30;20052;-96
2022/07/29 14:41:14;;;;;;;;;;;;;;;;;;;;;
2022/07/29 14:51:36;;;;;;;;;;;;;;;;;;;;;
2022/07/29 15:11:00;;;;;;;1.88;1.60;;;;;;;39.30;19.06;99119.25;5423173;23;20049;-95
2022/07/29 15:13:34;;;;;;;3.95;1.67;;;;;;;38.26;19.84;99117.28;4901931;29;20101;-96
2022/07/29 15:16:43;;;;;;;;;;;;;;;;;;;;;
2022/07/29 15:20:18;;;;;;;2.90;1.95;;;;;;;37.29;20.97;99098.50;4899329;29;20056;-96
2022/07/29 15:41:19;;;;;;;3.22;1.90;;;;;;;35.15;24.92;99116.91;4953417;29;20109;-95
2022/07/29 15:43:47;;;;;;;4.35;1.90;;;;;;;34.90;24.61;99102.81;4942608;29;20386;-96
2022/07/29 15:57:02;;;;;;;;;;;;;;;;;;;;;
2022/07/29 16:36:29;;;;;;;2.95;2.00;;;;;;;32.87;27.71;99087.34;4900480;29;20055;-92
2022/07/29 16:38:55;;;;;;;11.90;2.50;;;;;;;32.85;28.24;99096.13;4900082;29;20029;-92
2022/07/29 16:41:20;;;;;;;2.65;2.17;;;;;;;32.84;28.05;99091.00;4884377;29;20040;-92
2022/07/29 16:43:46;;;;;;;3.65;2.10;;;;;;;32.75;28.18;99103.50;4868166;29;20080;-94
2022/07/29 16:46:12;;;;;;;3.63;2.22;;;;;;;32.69;28.46;99102.44;4854119;29;20031;-92
2022/07/29 16:48:37;;;;;;;4.18;2.20;;;;;;;32.71;28.34;99116.72;4868131;29;20029;-93
2022/07/29 16:51:36;;;;;;;4.38;1.98;;;;;;;32.55;28.25;99109.03;4853948;29;20043;-93
2022/07/29 16:54:01;;;;;;;3.13;2.22;;;;;;;32.49;28.85;99116.28;4813984;29;20537;-94
2022/07/29 16:56:54;;;;;;;2.55;2.22;;;;;;;32.30;28.96;99103.06;4829479;29;20041;-93
2022/07/29 16:59:19;;;;;;;2.40;1.98;;;;;;;32.28;28.77;99105.47;4843793;29;20030;-94
2022/07/29 17:01:45;;;;;;;3.13;2.25;;;;;;;32.25;29.21;99117.47;4813267;29;20044;-95